sensor_id;sensor_type;location;lat;lon;timestamp;P1;durP1;ratioP1;P2;durP2;ratioP2
36593;SDS011;22603;47.900;8.146;2022-10-03T00:02:53;0.23;;;0.23;;
36593;SDS011;22603;47.900;8.146;2022-10-03T00:06:08;0.40;;;0.40;;
36593;SDS011;22603;47.900;8.146;2022-10-03T00:09:03;0.30;;;0.30;;
36593;SDS011;22603;47.900;8.146;2022-10-03T00:12:08;0.27;;;0.27;;
36593;SDS011;22603;47.900;8.146;2022-10-03T00:15:10;0.37;;;0.37;;
36593;SDS011;22603;47.900;8.146;2022-10-03T00:18:05;0.27;;;0.27;;
36593;SDS011;22603;47.900;8.146;2022-10-03T00:21:05;0.27;;;0.27;;
36593;SDS011;22603;47.900;8.146;2022-10-03T00:24:03;0.20;;;0.20;;
36593;SDS011;22603;47.900;8.146;2022-10-03T00:27:05;0.20;;;0.20;;
36593;SDS011;22603;47.900;8.146;2022-10-03T00:29:58;1.70;;;0.30;;
36593;SDS011;22603;47.900;8.146;2022-10-03T00:33:08;0.20;;;0.20;;
36593;SDS011;22603;47.900;8.146;2022-10-03T00:36:05;0.33;;;0.30;;
36593;SDS011;22603;47.900;8.146;2022-10-03T00:39:08;0.97;;;0.50;;
36593;SDS011;22603;47.900;8.146;2022-10-03T00:49:13;0.30;;;0.30;;
36593;SDS011;22603;47.900;8.146;2022-10-03T00:52:32;0.30;;;0.30;;
36593;SDS011;22603;47.900;8.146;2022-10-03T00:55:46;0.37;;;0.37;;
36593;SDS011;22603;47.900;8.146;2022-10-03T00:58:51;0.40;;;0.40;;
36593;SDS011;22603;47.900;8.146;2022-10-03T01:01:49;1.40;;;0.30;;
36593;SDS011;22603;47.900;8.146;2022-10-03T01:04:43;0.53;;;0.53;;
36593;SDS011;22603;47.900;8.146;2022-10-03T01:07:44;0.43;;;0.40;;
36593;SDS011;22603;47.900;8.146;2022-10-03T01:10:51;0.40;;;0.40;;
36593;SDS011;22603;47.900;8.146;2022-10-03T01:13:46;0.40;;;0.40;;
36593;SDS011;22603;47.900;8.146;2022-10-03T01:16:42;1.10;;;0.50;;
36593;SDS011;22603;47.900;8.146;2022-10-03T01:26:17;0.50;;;0.30;;
36593;SDS011;22603;47.900;8.146;2022-10-03T01:29:16;0.33;;;0.33;;
36593;SDS011;22603;47.900;8.146;2022-10-03T01:32:27;0.20;;;0.20;;
36593;SDS011;22603;47.900;8.146;2022-10-03T01:35:31;4.93;;;0.40;;
36593;SDS011;22603;47.900;8.146;2022-10-03T01:38:29;0.20;;;0.20;;
36593;SDS011;22603;47.900;8.146;2022-10-03T01:41:23;0.30;;;0.30;;
36593;SDS011;22603;47.900;8.146;2022-10-03T01:44:19;0.30;;;0.30;;
36593;SDS011;22603;47.900;8.146;2022-10-03T01:47:17;0.40;;;0.40;;
36593;SDS011;22603;47.900;8.146;2022-10-03T01:50:12;2.40;;;0.47;;
36593;SDS011;22603;47.900;8.146;2022-10-03T01:53:06;0.30;;;0.30;;
36593;SDS011;22603;47.900;8.146;2022-10-03T01:56:02;0.30;;;0.30;;
36593;SDS011;22603;47.900;8.146;2022-10-03T01:58:57;0.47;;;0.40;;
36593;SDS011;22603;47.900;8.146;2022-10-03T02:01:54;0.47;;;0.47;;
36593;SDS011;22603;47.900;8.146;2022-10-03T02:04:49;0.70;;;0.50;;
36593;SDS011;22603;47.900;8.146;2022-10-03T02:07:42;0.80;;;0.40;;
36593;SDS011;22603;47.900;8.146;2022-10-03T02:10:38;0.20;;;0.20;;
36593;SDS011;22603;47.900;8.146;2022-10-03T02:13:36;0.37;;;0.37;;
36593;SDS011;22603;47.900;8.146;2022-10-03T02:16:30;1.00;;;0.53;;
36593;SDS011;22603;47.900;8.146;2022-10-03T02:19:27;0.77;;;0.60;;
36593;SDS011;22603;47.900;8.146;2022-10-03T02:22:27;0.97;;;0.43;;
36593;SDS011;22603;47.900;8.146;2022-10-03T02:25:22;1.60;;;0.60;;
36593;SDS011;22603;47.900;8.146;2022-10-03T02:28:23;0.30;;;0.30;;
36593;SDS011;22603;47.900;8.146;2022-10-03T02:34:50;1.27;;;0.60;;
36593;SDS011;22603;47.900;8.146;2022-10-03T02:41:16;1.43;;;0.47;;
36593;SDS011;22603;47.900;8.146;2022-10-03T02:44:30;0.63;;;0.40;;
36593;SDS011;22603;47.900;8.146;2022-10-03T02:47:51;0.50;;;0.50;;
36593;SDS011;22603;47.900;8.146;2022-10-03T02:54:53;1.77;;;0.60;;
36593;SDS011;22603;47.900;8.146;2022-10-03T02:58:03;0.63;;;0.50;;
36593;SDS011;22603;47.900;8.146;2022-10-03T03:08:17;1.23;;;0.50;;
36593;SDS011;22603;47.900;8.146;2022-10-03T03:18:32;0.50;;;0.50;;
36593;SDS011;22603;47.900;8.146;2022-10-03T03:21:23;2.53;;;0.60;;
36593;SDS011;22603;47.900;8.146;2022-10-03T03:24:23;0.50;;;0.50;;
36593;SDS011;22603;47.900;8.146;2022-10-03T03:27:32;0.77;;;0.47;;
36593;SDS011;22603;47.900;8.146;2022-10-03T03:30:31;1.07;;;0.70;;
36593;SDS011;22603;47.900;8.146;2022-10-03T03:33:27;1.23;;;0.60;;
36593;SDS011;22603;47.900;8.146;2022-10-03T03:36:22;0.50;;;0.50;;
36593;SDS011;22603;47.900;8.146;2022-10-03T03:39:23;1.50;;;0.67;;
36593;SDS011;22603;47.900;8.146;2022-10-03T03:42:37;0.50;;;0.50;;
36593;SDS011;22603;47.900;8.146;2022-10-03T03:45:52;0.83;;;0.60;;
36593;SDS011;22603;47.900;8.146;2022-10-03T03:48:55;2.53;;;0.50;;
36593;SDS011;22603;47.900;8.146;2022-10-03T03:51:52;1.43;;;0.73;;
36593;SDS011;22603;47.900;8.146;2022-10-03T03:54:54;2.67;;;0.70;;
36593;SDS011;22603;47.900;8.146;2022-10-03T03:57:59;0.70;;;0.60;;
36593;SDS011;22603;47.900;8.146;2022-10-03T04:01:03;3.33;;;1.30;;
36593;SDS011;22603;47.900;8.146;2022-10-03T04:04:14;4.43;;;1.73;;
36593;SDS011;22603;47.900;8.146;2022-10-03T04:07:17;4.77;;;1.70;;
36593;SDS011;22603;47.900;8.146;2022-10-03T04:10:14;4.80;;;1.90;;
36593;SDS011;22603;47.900;8.146;2022-10-03T04:13:13;6.13;;;2.00;;
36593;SDS011;22603;47.900;8.146;2022-10-03T04:19:58;6.37;;;1.93;;
36593;SDS011;22603;47.900;8.146;2022-10-03T04:23:07;6.70;;;2.30;;
36593;SDS011;22603;47.900;8.146;2022-10-03T04:26:12;4.90;;;1.77;;
36593;SDS011;22603;47.900;8.146;2022-10-03T04:32:36;7.00;;;2.50;;
36593;SDS011;22603;47.900;8.146;2022-10-03T04:39:15;5.53;;;2.13;;
36593;SDS011;22603;47.900;8.146;2022-10-03T04:42:12;7.33;;;2.13;;
36593;SDS011;22603;47.900;8.146;2022-10-03T04:45:17;6.40;;;2.03;;
36593;SDS011;22603;47.900;8.146;2022-10-03T04:48:15;4.43;;;1.80;;
36593;SDS011;22603;47.900;8.146;2022-10-03T04:51:15;3.83;;;1.57;;
36593;SDS011;22603;47.900;8.146;2022-10-03T04:54:14;5.27;;;2.03;;
36593;SDS011;22603;47.900;8.146;2022-10-03T04:57:13;6.57;;;2.40;;
36593;SDS011;22603;47.900;8.146;2022-10-03T05:00:13;7.50;;;2.40;;
36593;SDS011;22603;47.900;8.146;2022-10-03T05:03:12;4.93;;;1.87;;
36593;SDS011;22603;47.900;8.146;2022-10-03T05:06:07;5.73;;;1.97;;
36593;SDS011;22603;47.900;8.146;2022-10-03T05:09:14;5.60;;;2.00;;
36593;SDS011;22603;47.900;8.146;2022-10-03T05:12:10;7.50;;;2.17;;
36593;SDS011;22603;47.900;8.146;2022-10-03T05:15:06;5.33;;;2.17;;
36593;SDS011;22603;47.900;8.146;2022-10-03T05:18:07;4.27;;;1.87;;
36593;SDS011;22603;47.900;8.146;2022-10-03T05:21:08;4.83;;;2.13;;
36593;SDS011;22603;47.900;8.146;2022-10-03T05:24:01;8.13;;;2.33;;
36593;SDS011;22603;47.900;8.146;2022-10-03T05:27:05;4.53;;;2.00;;
36593;SDS011;22603;47.900;8.146;2022-10-03T05:30:02;6.20;;;2.37;;
36593;SDS011;22603;47.900;8.146;2022-10-03T05:32:53;7.17;;;2.10;;
36593;SDS011;22603;47.900;8.146;2022-10-03T05:36:03;6.23;;;2.00;;
36593;SDS011;22603;47.900;8.146;2022-10-03T05:39:22;6.27;;;2.37;;
36593;SDS011;22603;47.900;8.146;2022-10-03T05:42:16;4.43;;;1.97;;
36593;SDS011;22603;47.900;8.146;2022-10-03T05:45:24;7.63;;;1.87;;
36593;SDS011;22603;47.900;8.146;2022-10-03T05:48:23;8.63;;;2.23;;
36593;SDS011;22603;47.900;8.146;2022-10-03T05:55:00;7.37;;;2.40;;
36593;SDS011;22603;47.900;8.146;2022-10-03T05:58:10;6.00;;;2.27;;
36593;SDS011;22603;47.900;8.146;2022-10-03T06:01:30;5.90;;;1.87;;
36593;SDS011;22603;47.900;8.146;2022-10-03T06:04:40;4.23;;;1.83;;
36593;SDS011;22603;47.900;8.146;2022-10-03T06:07:46;7.50;;;2.27;;
36593;SDS011;22603;47.900;8.146;2022-10-03T06:10:51;7.83;;;2.10;;
36593;SDS011;22603;47.900;8.146;2022-10-03T06:14:00;5.70;;;2.20;;
36593;SDS011;22603;47.900;8.146;2022-10-03T06:17:27;8.67;;;2.33;;
36593;SDS011;22603;47.900;8.146;2022-10-03T06:20:45;7.97;;;2.60;;
36593;SDS011;22603;47.900;8.146;2022-10-03T06:30:47;6.97;;;2.33;;
36593;SDS011;22603;47.900;8.146;2022-10-03T06:34:19;9.33;;;2.77;;
36593;SDS011;22603;47.900;8.146;2022-10-03T06:37:38;5.50;;;2.10;;
36593;SDS011;22603;47.900;8.146;2022-10-03T06:40:59;8.07;;;2.40;;
36593;SDS011;22603;47.900;8.146;2022-10-03T06:44:13;6.67;;;2.20;;
36593;SDS011;22603;47.900;8.146;2022-10-03T06:47:14;6.77;;;2.17;;
36593;SDS011;22603;47.900;8.146;2022-10-03T06:50:13;9.10;;;3.37;;
36593;SDS011;22603;47.900;8.146;2022-10-03T06:57:00;6.47;;;2.33;;
36593;SDS011;22603;47.900;8.146;2022-10-03T07:00:02;6.43;;;2.30;;
36593;SDS011;22603;47.900;8.146;2022-10-03T07:03:08;6.03;;;2.57;;
36593;SDS011;22603;47.900;8.146;2022-10-03T07:09:50;8.00;;;2.97;;
36593;SDS011;22603;47.900;8.146;2022-10-03T07:13:01;5.80;;;2.40;;
36593;SDS011;22603;47.900;8.146;2022-10-03T07:16:29;9.70;;;3.00;;
36593;SDS011;22603;47.900;8.146;2022-10-03T07:19:47;6.10;;;2.50;;
36593;SDS011;22603;47.900;8.146;2022-10-03T07:29:39;6.50;;;2.03;;
36593;SDS011;22603;47.900;8.146;2022-10-03T07:33:21;4.70;;;1.90;;
36593;SDS011;22603;47.900;8.146;2022-10-03T07:36:30;6.23;;;2.00;;
36593;SDS011;22603;47.900;8.146;2022-10-03T07:46:51;8.60;;;2.23;;
36593;SDS011;22603;47.900;8.146;2022-10-03T07:50:04;7.33;;;2.90;;
36593;SDS011;22603;47.900;8.146;2022-10-03T07:53:16;4.83;;;2.07;;
36593;SDS011;22603;47.900;8.146;2022-10-03T07:56:26;7.27;;;2.27;;
36593;SDS011;22603;47.900;8.146;2022-10-03T07:59:58;6.53;;;1.70;;
36593;SDS011;22603;47.900;8.146;2022-10-03T08:03:01;5.53;;;2.00;;
36593;SDS011;22603;47.900;8.146;2022-10-03T08:06:17;7.23;;;2.10;;
36593;SDS011;22603;47.900;8.146;2022-10-03T08:09:21;6.70;;;2.07;;
36593;SDS011;22603;47.900;8.146;2022-10-03T08:15:41;7.50;;;2.13;;
36593;SDS011;22603;47.900;8.146;2022-10-03T08:22:04;6.80;;;2.27;;
36593;SDS011;22603;47.900;8.146;2022-10-03T08:28:17;5.83;;;2.20;;
36593;SDS011;22603;47.900;8.146;2022-10-03T08:31:25;7.83;;;2.27;;
36593;SDS011;22603;47.900;8.146;2022-10-03T08:34:56;5.90;;;2.60;;
36593;SDS011;22603;47.900;8.146;2022-10-03T08:38:11;6.13;;;2.33;;
36593;SDS011;22603;47.900;8.146;2022-10-03T08:45:09;3.67;;;1.50;;
36593;SDS011;22603;47.900;8.146;2022-10-03T08:55:09;3.83;;;1.57;;
36593;SDS011;22603;47.900;8.146;2022-10-03T08:58:23;3.43;;;1.73;;
36593;SDS011;22603;47.900;8.146;2022-10-03T09:08:31;3.83;;;1.53;;
36593;SDS011;22603;47.900;8.146;2022-10-03T09:11:46;6.67;;;1.40;;
36593;SDS011;22603;47.900;8.146;2022-10-03T09:15:02;3.83;;;1.27;;
36593;SDS011;22603;47.900;8.146;2022-10-03T09:18:14;2.03;;;1.10;;
36593;SDS011;22603;47.900;8.146;2022-10-03T09:35:26;2.27;;;1.23;;
36593;SDS011;22603;47.900;8.146;2022-10-03T09:38:56;4.33;;;1.20;;
36593;SDS011;22603;47.900;8.146;2022-10-03T09:41:55;2.50;;;1.10;;
36593;SDS011;22603;47.900;8.146;2022-10-03T09:45:25;1.70;;;1.00;;
36593;SDS011;22603;47.900;8.146;2022-10-03T09:48:53;2.73;;;1.10;;
36593;SDS011;22603;47.900;8.146;2022-10-03T09:52:08;3.53;;;1.10;;
36593;SDS011;22603;47.900;8.146;2022-10-03T09:55:19;5.13;;;1.13;;
36593;SDS011;22603;47.900;8.146;2022-10-03T09:58:26;3.27;;;1.10;;
36593;SDS011;22603;47.900;8.146;2022-10-03T10:01:31;3.17;;;1.20;;
36593;SDS011;22603;47.900;8.146;2022-10-03T10:04:32;2.40;;;1.10;;
36593;SDS011;22603;47.900;8.146;2022-10-03T10:07:59;1.53;;;0.90;;
36593;SDS011;22603;47.900;8.146;2022-10-03T10:11:10;1.53;;;0.90;;
36593;SDS011;22603;47.900;8.146;2022-10-03T10:21:08;3.23;;;1.47;;
36593;SDS011;22603;47.900;8.146;2022-10-03T10:31:14;1.77;;;1.23;;
36593;SDS011;22603;47.900;8.146;2022-10-03T10:34:23;2.10;;;1.10;;
36593;SDS011;22603;47.900;8.146;2022-10-03T10:37:41;1.45;;;0.93;;
36593;SDS011;22603;47.900;8.146;2022-10-03T10:44:35;2.40;;;1.00;;
36593;SDS011;22603;47.900;8.146;2022-10-03T10:51:21;4.15;;;1.23;;
36593;SDS011;22603;47.900;8.146;2022-10-03T10:54:45;3.08;;;0.95;;
36593;SDS011;22603;47.900;8.146;2022-10-03T10:57:56;2.80;;;0.98;;
36593;SDS011;22603;47.900;8.146;2022-10-03T11:01:16;1.83;;;0.85;;
36593;SDS011;22603;47.900;8.146;2022-10-03T11:36:29;2.75;;;1.10;;
36593;SDS011;22603;47.900;8.146;2022-10-03T11:39:41;1.10;;;0.88;;
36593;SDS011;22603;47.900;8.146;2022-10-03T11:42:38;5.05;;;1.20;;
36593;SDS011;22603;47.900;8.146;2022-10-03T11:45:38;2.97;;;1.02;;
36593;SDS011;22603;47.900;8.146;2022-10-03T11:48:36;3.50;;;1.05;;
36593;SDS011;22603;47.900;8.146;2022-10-03T11:51:31;5.60;;;1.20;;
36593;SDS011;22603;47.900;8.146;2022-10-03T11:54:27;3.63;;;0.90;;
36593;SDS011;22603;47.900;8.146;2022-10-03T11:57:20;2.80;;;1.20;;
36593;SDS011;22603;47.900;8.146;2022-10-03T12:00:14;4.00;;;1.10;;
36593;SDS011;22603;47.900;8.146;2022-10-03T12:03:09;2.40;;;1.00;;
36593;SDS011;22603;47.900;8.146;2022-10-03T12:06:07;2.58;;;1.20;;
36593;SDS011;22603;47.900;8.146;2022-10-03T12:09:21;3.42;;;1.15;;
36593;SDS011;22603;47.900;8.146;2022-10-03T12:12:21;3.20;;;1.00;;
36593;SDS011;22603;47.900;8.146;2022-10-03T12:15:22;1.77;;;1.00;;
36593;SDS011;22603;47.900;8.146;2022-10-03T12:18:18;2.85;;;1.08;;
36593;SDS011;22603;47.900;8.146;2022-10-03T12:21:16;1.52;;;0.95;;
36593;SDS011;22603;47.900;8.146;2022-10-03T12:24:14;2.47;;;1.17;;
36593;SDS011;22603;47.900;8.146;2022-10-03T12:27:12;3.65;;;1.20;;
36593;SDS011;22603;47.900;8.146;2022-10-03T12:30:11;3.45;;;1.30;;
36593;SDS011;22603;47.900;8.146;2022-10-03T12:33:05;2.83;;;1.25;;
36593;SDS011;22603;47.900;8.146;2022-10-03T12:36:04;5.28;;;1.13;;
36593;SDS011;22603;47.900;8.146;2022-10-03T12:39:08;3.47;;;1.30;;
36593;SDS011;22603;47.900;8.146;2022-10-03T12:42:16;3.42;;;1.30;;
36593;SDS011;22603;47.900;8.146;2022-10-03T12:45:14;4.82;;;1.30;;
36593;SDS011;22603;47.900;8.146;2022-10-03T12:48:12;2.38;;;1.20;;
36593;SDS011;22603;47.900;8.146;2022-10-03T12:51:13;2.72;;;1.38;;
36593;SDS011;22603;47.900;8.146;2022-10-03T12:54:11;3.33;;;1.42;;
36593;SDS011;22603;47.900;8.146;2022-10-03T13:00:29;2.75;;;1.20;;
36593;SDS011;22603;47.900;8.146;2022-10-03T13:03:22;3.10;;;1.25;;
36593;SDS011;22603;47.900;8.146;2022-10-03T13:09:57;4.75;;;1.30;;
36593;SDS011;22603;47.900;8.146;2022-10-03T13:12:58;4.30;;;1.67;;
36593;SDS011;22603;47.900;8.146;2022-10-03T13:16:16;3.08;;;1.55;;
36593;SDS011;22603;47.900;8.146;2022-10-03T13:19:09;3.97;;;1.33;;
36593;SDS011;22603;47.900;8.146;2022-10-03T13:22:03;3.10;;;1.40;;
36593;SDS011;22603;47.900;8.146;2022-10-03T13:25:16;3.63;;;1.40;;
36593;SDS011;22603;47.900;8.146;2022-10-03T13:28:07;5.78;;;1.50;;
36593;SDS011;22603;47.900;8.146;2022-10-03T13:31:00;4.47;;;1.38;;
36593;SDS011;22603;47.900;8.146;2022-10-03T13:33:54;2.67;;;1.33;;
36593;SDS011;22603;47.900;8.146;2022-10-03T13:36:47;2.17;;;1.30;;
36593;SDS011;22603;47.900;8.146;2022-10-03T13:39:42;2.47;;;1.17;;
36593;SDS011;22603;47.900;8.146;2022-10-03T13:42:35;1.98;;;1.13;;
36593;SDS011;22603;47.900;8.146;2022-10-03T13:45:25;3.25;;;1.58;;
36593;SDS011;22603;47.900;8.146;2022-10-03T13:48:16;5.38;;;1.25;;
36593;SDS011;22603;47.900;8.146;2022-10-03T13:51:11;2.88;;;1.30;;
36593;SDS011;22603;47.900;8.146;2022-10-03T13:54:06;5.95;;;1.40;;
36593;SDS011;22603;47.900;8.146;2022-10-03T13:56:58;5.60;;;1.20;;
36593;SDS011;22603;47.900;8.146;2022-10-03T13:59:57;4.95;;;1.35;;
36593;SDS011;22603;47.900;8.146;2022-10-03T14:03:00;3.78;;;1.50;;
36593;SDS011;22603;47.900;8.146;2022-10-03T14:06:09;5.05;;;1.60;;
36593;SDS011;22603;47.900;8.146;2022-10-03T14:12:24;3.38;;;1.50;;
36593;SDS011;22603;47.900;8.146;2022-10-03T14:15:43;2.00;;;1.30;;
36593;SDS011;22603;47.900;8.146;2022-10-03T14:18:38;3.97;;;1.42;;
36593;SDS011;22603;47.900;8.146;2022-10-03T14:24:54;3.13;;;1.30;;
36593;SDS011;22603;47.900;8.146;2022-10-03T14:27:51;4.30;;;1.35;;
36593;SDS011;22603;47.900;8.146;2022-10-03T14:30:45;5.40;;;1.27;;
36593;SDS011;22603;47.900;8.146;2022-10-03T14:33:51;5.18;;;1.23;;
36593;SDS011;22603;47.900;8.146;2022-10-03T14:36:45;2.70;;;1.33;;
36593;SDS011;22603;47.900;8.146;2022-10-03T14:39:37;4.53;;;1.60;;
36593;SDS011;22603;47.900;8.146;2022-10-03T14:45:55;4.18;;;1.20;;
36593;SDS011;22603;47.900;8.146;2022-10-03T14:48:44;2.60;;;1.35;;
36593;SDS011;22603;47.900;8.146;2022-10-03T14:51:35;2.67;;;1.27;;
36593;SDS011;22603;47.900;8.146;2022-10-03T14:54:26;4.90;;;1.48;;
36593;SDS011;22603;47.900;8.146;2022-10-03T14:57:20;5.60;;;1.50;;
36593;SDS011;22603;47.900;8.146;2022-10-03T15:00:24;3.25;;;1.55;;
36593;SDS011;22603;47.900;8.146;2022-10-03T15:03:20;6.55;;;1.60;;
36593;SDS011;22603;47.900;8.146;2022-10-03T15:06:29;4.10;;;1.60;;
36593;SDS011;22603;47.900;8.146;2022-10-03T15:09:20;5.15;;;1.67;;
36593;SDS011;22603;47.900;8.146;2022-10-03T15:12:11;3.42;;;1.48;;
36593;SDS011;22603;47.900;8.146;2022-10-03T15:15:05;3.15;;;1.52;;
36593;SDS011;22603;47.900;8.146;2022-10-03T15:17:56;5.60;;;2.00;;
36593;SDS011;22603;47.900;8.146;2022-10-03T15:20:49;7.32;;;1.67;;
36593;SDS011;22603;47.900;8.146;2022-10-03T15:23:39;10.40;;;1.80;;
36593;SDS011;22603;47.900;8.146;2022-10-03T15:26:31;4.20;;;1.40;;
36593;SDS011;22603;47.900;8.146;2022-10-03T15:29:21;3.92;;;1.60;;
36593;SDS011;22603;47.900;8.146;2022-10-03T15:32:16;3.65;;;1.85;;
36593;SDS011;22603;47.900;8.146;2022-10-03T15:35:13;4.47;;;1.58;;
36593;SDS011;22603;47.900;8.146;2022-10-03T15:38:05;7.18;;;1.75;;
36593;SDS011;22603;47.900;8.146;2022-10-03T15:41:04;3.33;;;1.40;;
36593;SDS011;22603;47.900;8.146;2022-10-03T15:43:55;2.38;;;1.23;;
36593;SDS011;22603;47.900;8.146;2022-10-03T15:46:48;3.60;;;1.38;;
36593;SDS011;22603;47.900;8.146;2022-10-03T15:49:39;7.75;;;1.98;;
36593;SDS011;22603;47.900;8.146;2022-10-03T15:52:35;3.57;;;1.57;;
36593;SDS011;22603;47.900;8.146;2022-10-03T15:55:28;2.90;;;1.40;;
36593;SDS011;22603;47.900;8.146;2022-10-03T15:58:19;3.90;;;1.50;;
36593;SDS011;22603;47.900;8.146;2022-10-03T16:01:11;3.90;;;1.63;;
36593;SDS011;22603;47.900;8.146;2022-10-03T16:04:05;3.63;;;1.60;;
36593;SDS011;22603;47.900;8.146;2022-10-03T16:06:58;2.00;;;1.27;;
36593;SDS011;22603;47.900;8.146;2022-10-03T16:09:49;5.27;;;1.70;;
36593;SDS011;22603;47.900;8.146;2022-10-03T16:12:53;3.37;;;1.70;;
36593;SDS011;22603;47.900;8.146;2022-10-03T16:15:49;3.93;;;1.50;;
36593;SDS011;22603;47.900;8.146;2022-10-03T16:18:48;4.03;;;1.60;;
36593;SDS011;22603;47.900;8.146;2022-10-03T16:21:42;5.10;;;1.50;;
36593;SDS011;22603;47.900;8.146;2022-10-03T16:24:33;5.50;;;1.70;;
36593;SDS011;22603;47.900;8.146;2022-10-03T16:27:23;3.73;;;1.63;;
36593;SDS011;22603;47.900;8.146;2022-10-03T16:30:16;4.10;;;2.00;;
36593;SDS011;22603;47.900;8.146;2022-10-03T16:33:10;5.10;;;1.70;;
36593;SDS011;22603;47.900;8.146;2022-10-03T16:36:03;5.20;;;1.90;;
36593;SDS011;22603;47.900;8.146;2022-10-03T16:38:52;6.63;;;1.80;;
36593;SDS011;22603;47.900;8.146;2022-10-03T16:41:43;6.73;;;2.00;;
36593;SDS011;22603;47.900;8.146;2022-10-03T16:44:33;4.27;;;1.63;;
36593;SDS011;22603;47.900;8.146;2022-10-03T16:47:29;3.87;;;1.80;;
36593;SDS011;22603;47.900;8.146;2022-10-03T16:50:20;3.27;;;1.50;;
36593;SDS011;22603;47.900;8.146;2022-10-03T16:53:09;9.63;;;2.20;;
36593;SDS011;22603;47.900;8.146;2022-10-03T16:55:57;8.23;;;2.30;;
36593;SDS011;22603;47.900;8.146;2022-10-03T16:58:51;2.77;;;1.60;;
36593;SDS011;22603;47.900;8.146;2022-10-03T17:01:41;3.83;;;1.70;;
36593;SDS011;22603;47.900;8.146;2022-10-03T17:04:34;9.07;;;2.57;;
36593;SDS011;22603;47.900;8.146;2022-10-03T17:07:24;4.67;;;1.83;;
36593;SDS011;22603;47.900;8.146;2022-10-03T17:10:19;10.00;;;1.87;;
36593;SDS011;22603;47.900;8.146;2022-10-03T17:13:19;8.23;;;2.07;;
36593;SDS011;22603;47.900;8.146;2022-10-03T17:16:11;7.10;;;2.03;;
36593;SDS011;22603;47.900;8.146;2022-10-03T17:19:06;5.77;;;2.37;;
36593;SDS011;22603;47.900;8.146;2022-10-03T17:22:04;6.80;;;2.13;;
36593;SDS011;22603;47.900;8.146;2022-10-03T17:24:59;5.37;;;2.47;;
36593;SDS011;22603;47.900;8.146;2022-10-03T17:27:50;7.53;;;2.63;;
36593;SDS011;22603;47.900;8.146;2022-10-03T17:30:40;6.00;;;2.80;;
36593;SDS011;22603;47.900;8.146;2022-10-03T17:33:34;9.20;;;2.57;;
36593;SDS011;22603;47.900;8.146;2022-10-03T17:36:46;8.90;;;3.17;;
36593;SDS011;22603;47.900;8.146;2022-10-03T17:40:00;9.03;;;3.00;;
36593;SDS011;22603;47.900;8.146;2022-10-03T17:42:59;10.30;;;3.77;;
36593;SDS011;22603;47.900;8.146;2022-10-03T17:45:57;8.20;;;3.50;;
36593;SDS011;22603;47.900;8.146;2022-10-03T17:48:51;8.47;;;3.67;;
36593;SDS011;22603;47.900;8.146;2022-10-03T17:51:45;9.60;;;3.30;;
36593;SDS011;22603;47.900;8.146;2022-10-03T17:54:37;13.03;;;2.70;;
36593;SDS011;22603;47.900;8.146;2022-10-03T17:57:26;11.97;;;3.77;;
36593;SDS011;22603;47.900;8.146;2022-10-03T18:00:18;12.53;;;3.27;;
36593;SDS011;22603;47.900;8.146;2022-10-03T18:03:07;10.97;;;3.33;;
36593;SDS011;22603;47.900;8.146;2022-10-03T18:05:59;8.30;;;3.00;;
36593;SDS011;22603;47.900;8.146;2022-10-03T18:09:09;5.67;;;2.60;;
36593;SDS011;22603;47.900;8.146;2022-10-03T18:12:13;12.40;;;3.87;;
36593;SDS011;22603;47.900;8.146;2022-10-03T18:15:24;10.10;;;3.97;;
36593;SDS011;22603;47.900;8.146;2022-10-03T18:21:52;22.93;;;3.43;;
36593;SDS011;22603;47.900;8.146;2022-10-03T18:24:50;19.70;;;3.57;;
36593;SDS011;22603;47.900;8.146;2022-10-03T18:27:49;9.67;;;3.43;;
36593;SDS011;22603;47.900;8.146;2022-10-03T18:30:57;10.40;;;3.00;;
36593;SDS011;22603;47.900;8.146;2022-10-03T18:33:45;5.73;;;2.33;;
36593;SDS011;22603;47.900;8.146;2022-10-03T18:36:37;8.23;;;3.00;;
36593;SDS011;22603;47.900;8.146;2022-10-03T18:39:30;7.70;;;2.93;;
36593;SDS011;22603;47.900;8.146;2022-10-03T18:42:22;7.90;;;2.77;;
36593;SDS011;22603;47.900;8.146;2022-10-03T18:45:16;7.80;;;2.90;;
36593;SDS011;22603;47.900;8.146;2022-10-03T18:48:08;8.63;;;3.00;;
36593;SDS011;22603;47.900;8.146;2022-10-03T18:51:00;7.83;;;2.40;;
36593;SDS011;22603;47.900;8.146;2022-10-03T18:53:57;6.73;;;2.83;;
36593;SDS011;22603;47.900;8.146;2022-10-03T18:56:57;9.67;;;3.10;;
36593;SDS011;22603;47.900;8.146;2022-10-03T18:59:50;7.27;;;2.43;;
36593;SDS011;22603;47.900;8.146;2022-10-03T19:02:43;6.47;;;2.77;;
36593;SDS011;22603;47.900;8.146;2022-10-03T19:05:34;7.83;;;2.80;;
36593;SDS011;22603;47.900;8.146;2022-10-03T19:08:28;7.20;;;2.80;;
36593;SDS011;22603;47.900;8.146;2022-10-03T19:11:23;8.60;;;2.60;;
36593;SDS011;22603;47.900;8.146;2022-10-03T19:14:15;8.50;;;3.10;;
36593;SDS011;22603;47.900;8.146;2022-10-03T19:17:13;6.47;;;2.33;;
36593;SDS011;22603;47.900;8.146;2022-10-03T19:20:16;9.23;;;2.70;;
36593;SDS011;22603;47.900;8.146;2022-10-03T19:23:09;11.80;;;3.77;;
36593;SDS011;22603;47.900;8.146;2022-10-03T19:26:00;8.97;;;3.20;;
36593;SDS011;22603;47.900;8.146;2022-10-03T19:28:52;10.17;;;3.40;;
36593;SDS011;22603;47.900;8.146;2022-10-03T19:31:44;16.97;;;3.60;;
36593;SDS011;22603;47.900;8.146;2022-10-03T19:34:38;7.60;;;3.17;;
36593;SDS011;22603;47.900;8.146;2022-10-03T19:37:35;9.30;;;3.03;;
36593;SDS011;22603;47.900;8.146;2022-10-03T19:40:32;6.83;;;2.70;;
36593;SDS011;22603;47.900;8.146;2022-10-03T19:43:33;7.40;;;3.03;;
36593;SDS011;22603;47.900;8.146;2022-10-03T19:46:46;8.60;;;2.50;;
36593;SDS011;22603;47.900;8.146;2022-10-03T19:49:53;6.47;;;2.63;;
36593;SDS011;22603;47.900;8.146;2022-10-03T19:52:49;7.23;;;2.80;;
36593;SDS011;22603;47.900;8.146;2022-10-03T19:55:37;10.13;;;2.70;;
36593;SDS011;22603;47.900;8.146;2022-10-03T19:58:24;15.07;;;3.00;;
36593;SDS011;22603;47.900;8.146;2022-10-03T20:01:13;7.27;;;2.43;;
36593;SDS011;22603;47.900;8.146;2022-10-03T20:04:01;6.80;;;2.53;;
36593;SDS011;22603;47.900;8.146;2022-10-03T20:06:48;7.60;;;2.90;;
36593;SDS011;22603;47.900;8.146;2022-10-03T20:09:37;19.83;;;4.20;;
36593;SDS011;22603;47.900;8.146;2022-10-03T20:12:28;11.37;;;3.73;;
36593;SDS011;22603;47.900;8.146;2022-10-03T20:15:19;7.47;;;3.00;;
36593;SDS011;22603;47.900;8.146;2022-10-03T20:18:10;6.73;;;2.60;;
36593;SDS011;22603;47.900;8.146;2022-10-03T20:21:07;7.83;;;2.57;;
36593;SDS011;22603;47.900;8.146;2022-10-03T20:23:57;9.43;;;3.47;;
36593;SDS011;22603;47.900;8.146;2022-10-03T20:26:48;9.77;;;3.13;;
36593;SDS011;22603;47.900;8.146;2022-10-03T20:29:44;6.63;;;2.47;;
36593;SDS011;22603;47.900;8.146;2022-10-03T20:32:37;7.33;;;3.00;;
36593;SDS011;22603;47.900;8.146;2022-10-03T20:35:31;7.90;;;2.50;;
36593;SDS011;22603;47.900;8.146;2022-10-03T20:38:32;11.77;;;3.23;;
36593;SDS011;22603;47.900;8.146;2022-10-03T20:41:35;11.07;;;3.50;;
36593;SDS011;22603;47.900;8.146;2022-10-03T20:47:53;9.50;;;2.63;;
36593;SDS011;22603;47.900;8.146;2022-10-03T20:50:45;13.53;;;3.20;;
36593;SDS011;22603;47.900;8.146;2022-10-03T20:53:33;9.33;;;3.30;;
36593;SDS011;22603;47.900;8.146;2022-10-03T20:56:21;9.07;;;3.00;;
36593;SDS011;22603;47.900;8.146;2022-10-03T20:59:21;9.03;;;3.63;;
36593;SDS011;22603;47.900;8.146;2022-10-03T21:02:22;9.87;;;3.93;;
36593;SDS011;22603;47.900;8.146;2022-10-03T21:05:14;13.37;;;3.97;;
36593;SDS011;22603;47.900;8.146;2022-10-03T21:08:10;7.97;;;3.17;;
36593;SDS011;22603;47.900;8.146;2022-10-03T21:11:12;9.30;;;3.67;;
36593;SDS011;22603;47.900;8.146;2022-10-03T21:14:06;9.40;;;3.03;;
36593;SDS011;22603;47.900;8.146;2022-10-03T21:17:03;7.87;;;3.20;;
36593;SDS011;22603;47.900;8.146;2022-10-03T21:19:53;11.03;;;2.77;;
36593;SDS011;22603;47.900;8.146;2022-10-03T21:22:45;7.60;;;2.73;;
36593;SDS011;22603;47.900;8.146;2022-10-03T22:06:44;7.50;;;3.23;;
36593;SDS011;22603;47.900;8.146;2022-10-03T22:13:52;7.17;;;2.70;;